createdAt,value
2022-09-14T00:01:44.588Z,99545.09
2022-09-14T00:06:42.039Z,99537.59
2022-09-14T00:11:38.782Z,99541.63
2022-09-14T00:16:39.142Z,99551.16
2022-09-14T00:21:38.315Z,99541.44
2022-09-14T00:26:34.740Z,99548.47
2022-09-14T00:31:34.601Z,99536.06
2022-09-14T00:36:32.394Z,99538.41
2022-09-14T00:41:32.543Z,99528.38
2022-09-14T00:46:37.474Z,99516.66
2022-09-14T00:51:36.121Z,99515.13
2022-09-14T00:56:32.720Z,99501.56
2022-09-14T01:01:29.080Z,99501.75
2022-09-14T01:06:31.839Z,99498.91
2022-09-14T01:11:51.609Z,99494.38
2022-09-14T01:17:00.530Z,99479.78
2022-09-14T01:22:09.072Z,99474.28
2022-09-14T01:27:32.926Z,99476.59
2022-09-14T01:32:36.573Z,99482.78
2022-09-14T01:37:51.446Z,99475.56
2022-09-14T01:42:51.873Z,99479.13
2022-09-14T01:48:09.019Z,99471.88
2022-09-14T01:53:11.517Z,99468.88
2022-09-14T01:58:14.446Z,99475.41
2022-09-14T02:03:22.141Z,99465.53
2022-09-14T02:08:18.586Z,99462.88
2022-09-14T02:13:14.921Z,99457.19
2022-09-14T02:18:11.754Z,99453.00
2022-09-14T02:23:08.746Z,99440.63
2022-09-14T02:28:05.019Z,99444.16
2022-09-14T02:33:14.500Z,99441.66
2022-09-14T02:38:21.437Z,99431.81
2022-09-14T02:43:30.579Z,99424.78
2022-09-14T02:48:40.745Z,99410.91
2022-09-14T02:53:43.468Z,99404.06
2022-09-14T02:58:42.994Z,99405.56
2022-09-14T03:03:39.608Z,99393.88
2022-09-14T03:08:35.974Z,99395.06
2022-09-14T03:13:34.630Z,99391.03
2022-09-14T03:18:30.897Z,99400.41
2022-09-14T03:23:27.162Z,99400.75
2022-09-14T03:28:23.413Z,99387.66
2022-09-14T03:33:19.856Z,99381.66
2022-09-14T03:38:16.114Z,99375.31
2022-09-14T03:43:12.614Z,99376.47
2022-09-14T03:48:08.974Z,99367.94
2022-09-14T03:53:05.233Z,99373.63
2022-09-14T03:58:01.563Z,99371.13
2022-09-14T04:03:00.018Z,99373.28
2022-09-14T04:07:57.077Z,99365.47
2022-09-14T04:12:53.489Z,99360.91
2022-09-14T04:17:50.054Z,99356.91
2022-09-14T04:22:46.572Z,99353.22
2022-09-14T04:27:42.890Z,99357.91
2022-09-14T04:32:39.268Z,99355.41
2022-09-14T04:37:35.694Z,99359.41
2022-09-14T04:42:32.074Z,99359.59
2022-09-14T04:47:28.527Z,99353.22
2022-09-14T04:52:24.798Z,99351.03
2022-09-14T04:57:21.123Z,99344.56
2022-09-14T05:02:17.568Z,99330.00
2022-09-14T05:07:13.990Z,99330.66
2022-09-14T05:12:10.319Z,99331.81
2022-09-14T05:17:06.728Z,99332.13
2022-09-14T05:22:03.071Z,99332.66
2022-09-14T05:27:01.574Z,99333.50
2022-09-14T05:31:58.845Z,99326.78
2022-09-14T05:36:55.123Z,99332.13
2022-09-14T05:41:52.393Z,99328.16
2022-09-14T05:46:49.603Z,99326.31
2022-09-14T05:51:46.275Z,99323.31
2022-09-14T05:56:42.742Z,99319.16
2022-09-14T06:01:39.306Z,99316.63
2022-09-14T06:06:35.619Z,99306.28
2022-09-14T06:11:36.167Z,99309.13
2022-09-14T06:16:32.466Z,99311.78
2022-09-14T06:21:31.299Z,99316.13
2022-09-14T06:26:27.563Z,99307.41
2022-09-14T06:31:25.321Z,99313.59
2022-09-14T06:36:25.317Z,99313.44
2022-09-14T06:41:26.466Z,99311.41
2022-09-14T06:46:25.957Z,99315.25
2022-09-14T06:51:26.636Z,99312.38
2022-09-14T06:56:22.959Z,99316.09
2022-09-14T07:01:20.871Z,99314.75
2022-09-14T07:06:20.867Z,99322.09
2022-09-14T07:11:19.575Z,99322.59
2022-09-14T07:16:16.071Z,99334.28
2022-09-14T07:21:17.811Z,99339.78
2022-09-14T07:26:17.368Z,99345.63
2022-09-14T07:31:18.645Z,99341.63
2022-09-14T07:36:15.310Z,99344.75
2022-09-14T07:41:11.578Z,99351.13
2022-09-14T07:46:08.041Z,99355.13
2022-09-14T07:51:10.467Z,99367.84
2022-09-14T07:56:10.436Z,99365.47
2022-09-14T08:01:11.797Z,99364.22
2022-09-14T08:06:14.486Z,99364.94
2022-09-14T08:11:27.899Z,99361.47
2022-09-14T08:16:26.183Z,99344.22
2022-09-14T08:21:23.013Z,99359.66
2022-09-14T08:26:22.644Z,99359.78
2022-09-14T08:31:21.461Z,99352.66
2022-09-14T08:36:19.914Z,99348.78
2022-09-14T08:41:26.041Z,99336.59
2022-09-14T08:46:29.840Z,99335.97
2022-09-14T08:51:26.823Z,99344.50
2022-09-14T08:56:26.617Z,99341.03
2022-09-14T09:01:28.607Z,99337.97
2022-09-14T09:06:45.859Z,99341.94
2022-09-14T09:11:48.156Z,99338.50
2022-09-14T09:16:48.911Z,99346.47
2022-09-14T09:21:48.149Z,99340.34
2022-09-14T09:26:44.431Z,99347.03
2022-09-14T09:31:45.292Z,99338.97
2022-09-14T09:36:48.021Z,99340.72
2022-09-14T09:41:50.954Z,99321.28
2022-09-14T09:46:56.548Z,99313.31
2022-09-14T09:51:53.550Z,99306.06
2022-09-14T09:56:59.356Z,99305.81
2022-09-14T10:02:13.922Z,99321.38
2022-09-14T10:07:21.555Z,99325.84
2022-09-14T10:12:19.478Z,99327.31
2022-09-14T10:17:17.584Z,99331.19
2022-09-14T10:22:21.833Z,99317.31
2022-09-14T10:27:48.409Z,99322.41
2022-09-14T10:33:02.100Z,99321.63
2022-09-14T10:38:25.709Z,99297.22
2022-09-14T10:43:51.848Z,99289.59
2022-09-14T10:49:06.039Z,99297.09
2022-09-14T10:54:14.905Z,99294.81
2022-09-14T10:59:51.053Z,99279.03
2022-09-14T11:05:09.550Z,99279.81
2022-09-14T11:10:23.101Z,99275.06
2022-09-14T11:15:33.036Z,99275.25
2022-09-14T11:20:44.149Z,99274.16
2022-09-14T11:25:55.730Z,99289.56
2022-09-14T11:31:11.998Z,99288.84
2022-09-14T11:36:23.733Z,99288.19
2022-09-14T11:41:37.902Z,99273.16
2022-09-14T11:46:39.351Z,99265.28
2022-09-14T11:51:47.748Z,99281.44
2022-09-14T11:56:48.511Z,99281.19
2022-09-14T12:01:44.942Z,99291.28
2022-09-14T12:06:42.847Z,99281.69
2022-09-14T12:11:39.149Z,99266.25
2022-09-14T12:17:13.074Z,99269.47
2022-09-14T12:22:26.868Z,99272.34
2022-09-14T12:27:23.621Z,99264.56
2022-09-14T12:32:45.113Z,99257.78
2022-09-14T12:37:41.485Z,99267.56
2022-09-14T12:42:37.825Z,99259.00
2022-09-14T12:47:35.629Z,99243.91
2022-09-14T12:52:47.920Z,99263.94
2022-09-14T12:58:05.277Z,99259.53
2022-09-14T13:03:29.871Z,99255.88
2022-09-14T13:08:26.375Z,99247.06
2022-09-14T13:13:28.021Z,99244.16
2022-09-14T13:18:42.429Z,99231.41
2022-09-14T13:23:41.939Z,99233.47
2022-09-14T13:28:38.413Z,99227.28
2022-09-14T13:33:34.787Z,99237.66
2022-09-14T13:38:34.451Z,99223.97
2022-09-14T13:43:30.937Z,99227.06
2022-09-14T13:48:27.483Z,99213.44
2022-09-14T13:53:45.453Z,99214.09
2022-09-14T13:58:41.730Z,99207.38
2022-09-14T14:03:39.391Z,99203.25
2022-09-14T14:08:38.094Z,99185.03
2022-09-14T14:13:37.292Z,99191.47
2022-09-14T14:18:41.025Z,99183.91
2022-09-14T14:23:51.324Z,99184.19
2022-09-14T14:28:54.930Z,99173.19
2022-09-14T14:33:53.387Z,99174.13
2022-09-14T14:38:50.213Z,99177.84
2022-09-14T14:43:49.857Z,99167.72
2022-09-14T14:48:46.151Z,99170.66
2022-09-14T14:53:43.119Z,99159.84
2022-09-14T14:58:47.257Z,99179.13
2022-09-14T15:03:44.378Z,99183.19
2022-09-14T15:08:40.881Z,99173.28
2022-09-14T15:13:37.279Z,99167.19
2022-09-14T15:18:33.617Z,99163.75
2022-09-14T15:23:30.106Z,99166.59
2022-09-14T15:28:26.625Z,99171.34
2022-09-14T15:33:23.102Z,99170.53
2022-09-14T15:38:20.612Z,99172.31
2022-09-14T15:43:17.593Z,99165.13
2022-09-14T15:48:16.143Z,99163.13
2022-09-14T15:53:14.686Z,99156.53
2022-09-14T15:58:11.473Z,99156.22
2022-09-14T16:03:08.817Z,99157.66
2022-09-14T16:08:05.258Z,99163.84
2022-09-14T16:13:01.856Z,99164.97
2022-09-14T16:17:58.643Z,99156.94
2022-09-14T16:22:55.141Z,99166.19
2022-09-14T16:27:51.435Z,99165.56
2022-09-14T16:32:48.704Z,99166.75
2022-09-14T16:37:45.076Z,99148.50
2022-09-14T16:42:41.390Z,99147.66
2022-09-14T16:47:37.848Z,99143.31
2022-09-14T16:52:34.186Z,99154.00
2022-09-14T16:57:30.533Z,99146.97
2022-09-14T17:02:26.935Z,99152.88
2022-09-14T17:07:23.766Z,99145.94
2022-09-14T17:12:20.070Z,99157.78
2022-09-14T17:17:16.488Z,99151.06
2022-09-14T17:22:14.028Z,99152.00
2022-09-14T17:27:10.894Z,99180.28
2022-09-14T17:32:10.144Z,99180.38
2022-09-14T17:37:08.966Z,99201.13
2022-09-14T17:42:05.405Z,99196.81
2022-09-14T17:47:01.828Z,99210.88
2022-09-14T17:51:58.178Z,99207.16
2022-09-14T17:56:54.554Z,99200.47
2022-09-14T18:01:50.918Z,99208.69
2022-09-14T18:06:49.158Z,99216.69
2022-09-14T18:11:46.693Z,99218.53
2022-09-14T18:16:44.045Z,99232.91
2022-09-14T18:21:41.099Z,99241.22
2022-09-14T18:26:38.618Z,99240.56
2022-09-14T18:31:35.149Z,99253.75
2022-09-14T18:36:31.757Z,99262.09
2022-09-14T18:41:33.958Z,99272.97
2022-09-14T18:46:30.708Z,99277.28
2022-09-14T18:51:28.470Z,99275.94
2022-09-14T18:56:25.062Z,99271.63
2022-09-14T19:01:21.642Z,99268.28
2022-09-14T19:06:19.011Z,99265.44
2022-09-14T19:11:17.516Z,99268.75
2022-09-14T19:16:18.848Z,99263.91
2022-09-14T19:21:23.717Z,99269.41
2022-09-14T19:26:20.980Z,99272.22
2022-09-14T19:31:20.132Z,99266.88
2022-09-14T19:36:20.162Z,99274.06
2022-09-14T19:41:17.307Z,99281.88
2022-09-14T19:46:19.192Z,99275.81
2022-09-14T19:51:22.923Z,99277.84
2022-09-14T19:56:22.882Z,99274.50
2022-09-14T20:01:21.975Z,99273.09
2022-09-14T20:06:31.730Z,99270.75
2022-09-14T20:11:31.264Z,99271.03
2022-09-14T20:16:31.108Z,99277.69
2022-09-14T20:21:28.186Z,99280.97
2022-09-14T20:26:26.064Z,99283.97
2022-09-14T20:31:22.706Z,99292.56
2022-09-14T20:36:21.326Z,99289.44
2022-09-14T20:41:18.592Z,99282.03
2022-09-14T20:46:20.927Z,99285.34
2022-09-14T20:51:20.662Z,99286.97
2022-09-14T20:56:22.306Z,99285.59
2022-09-14T21:01:20.573Z,99292.38
2022-09-14T21:06:20.609Z,99285.16
2022-09-14T21:11:23.155Z,99294.84
2022-09-14T21:16:36.745Z,99297.13
2022-09-14T21:21:33.755Z,99291.88
2022-09-14T21:26:33.959Z,99302.53
2022-09-14T21:31:30.945Z,99307.25
2022-09-14T21:36:34.579Z,99307.78
2022-09-14T21:41:32.163Z,99311.13
2022-09-14T21:46:28.690Z,99317.28
2022-09-14T21:51:28.327Z,99317.59
2022-09-14T21:56:27.462Z,99310.19
2022-09-14T22:01:24.957Z,99316.56
2022-09-14T22:06:24.897Z,99314.53
2022-09-14T22:11:24.443Z,99303.50
2022-09-14T22:16:21.614Z,99304.88
2022-09-14T22:21:18.980Z,99305.25
2022-09-14T22:26:15.456Z,99303.50
2022-09-14T22:31:11.817Z,99294.34
2022-09-14T22:36:10.460Z,99297.69
2022-09-14T22:41:12.688Z,99296.34
2022-09-14T22:46:09.453Z,99293.16
2022-09-14T22:51:07.541Z,99287.38
2022-09-14T22:56:14.159Z,99287.69
2022-09-14T23:01:13.857Z,99279.19
2022-09-14T23:06:11.207Z,99290.59
2022-09-14T23:11:10.813Z,99298.03
2022-09-14T23:16:16.750Z,99294.91
2022-09-14T23:21:13.253Z,99305.09
2022-09-14T23:26:12.195Z,99309.66
2022-09-14T23:31:08.587Z,99308.22
2022-09-14T23:36:05.071Z,99316.88
2022-09-14T23:41:01.616Z,99322.47
2022-09-14T23:45:58.086Z,99310.00
2022-09-14T23:50:59.451Z,99326.00
2022-09-14T23:55:57.728Z,99309.94
